UAL1639 KSBP-KSFO
Flight info
| Callsign | UAL1639 |
|---|---|
| Flight time | 0h 35m |
| Altitude | 26000 |
| Route | CREPE3 CREPE CLMNS LIBBO NRRLI SERFR4 |
| Aircraft | A319/M-SDE3FGHIRWY/LB1 |
Departure
| Time | 2026-04-23 22:25 |
|---|---|
| Airport | San Luis County Regional Airport (KSBP) |
Arrival
| Time | 2026-04-23 23:00 |
|---|---|
| Airport | San Francisco International Airport (KSFO) |
| Time | Latitude | Longitude | Altitude | Speed | Heading |
|---|---|---|---|---|---|
| 2026-04-23 22:04 | 35.23777 | -120.63839 | 184 ft | 0 kts | 90° |
| 2026-04-23 22:17 | 35.23777 | -120.63846 | 199 ft | 4 kts | 93° |
| 2026-04-23 22:18 | 35.23783 | -120.63877 | 187 ft | 4 kts | 131° |
| 2026-04-23 22:18 | 35.23804 | -120.63892 | 200 ft | 3 kts | 181° |
| 2026-04-23 22:18 | 35.23806 | -120.63892 | 196 ft | 0 kts | 182° |
| 2026-04-23 22:21 | 35.23803 | -120.63893 | 201 ft | 0 kts | 182° |
| 2026-04-23 22:21 | 35.23802 | -120.63893 | 201 ft | 0 kts | 182° |
| 2026-04-23 22:21 | 35.23790 | -120.63893 | 186 ft | 3 kts | 182° |
| 2026-04-23 22:21 | 35.23757 | -120.63894 | 188 ft | 6 kts | 178° |
| 2026-04-23 22:22 | 35.23712 | -120.63869 | 193 ft | 8 kts | 135° |
| 2026-04-23 22:22 | 35.23672 | -120.63802 | 187 ft | 11 kts | 123° |
| 2026-04-23 22:22 | 35.23623 | -120.63714 | 190 ft | 14 kts | 125° |
| 2026-04-23 22:22 | 35.23563 | -120.63612 | 188 ft | 16 kts | 125° |
| 2026-04-23 22:23 | 35.23498 | -120.63500 | 191 ft | 17 kts | 125° |
| 2026-04-23 22:23 | 35.23430 | -120.63381 | 183 ft | 18 kts | 125° |
| 2026-04-23 22:23 | 35.23386 | -120.63304 | 186 ft | 8 kts | 125° |
| 2026-04-23 22:23 | 35.23344 | -120.63243 | 189 ft | 10 kts | 150° |
| 2026-04-23 22:24 | 35.23283 | -120.63277 | 189 ft | 8 kts | 238° |
| 2026-04-23 22:24 | 35.23298 | -120.63341 | 193 ft | 0 kts | 303° |
| 2026-04-23 22:24 | 35.23335 | -120.63410 | 183 ft | 34 kts | 304° |
| 2026-04-23 22:24 | 35.23600 | -120.63870 | 189 ft | 98 kts | 305° |
| 2026-04-23 22:25 | 35.24105 | -120.64730 | 363 ft | 134 kts | 308° |
| 2026-04-23 22:25 | 35.24640 | -120.65664 | 1015 ft | 135 kts | 305° |
| 2026-04-23 22:25 | 35.25158 | -120.66601 | 1662 ft | 133 kts | 306° |
| 2026-04-23 22:25 | 35.25688 | -120.67555 | 2111 ft | 143 kts | 307° |
| 2026-04-23 22:26 | 35.26290 | -120.68630 | 2433 ft | 164 kts | 307° |
| 2026-04-23 22:26 | 35.26983 | -120.69856 | 2794 ft | 188 kts | 308° |
| 2026-04-23 22:26 | 35.27784 | -120.71268 | 3250 ft | 214 kts | 308° |
| 2026-04-23 22:26 | 35.28681 | -120.72847 | 3853 ft | 238 kts | 308° |
| 2026-04-23 22:27 | 35.29670 | -120.74584 | 4614 ft | 256 kts | 308° |
| 2026-04-23 22:27 | 35.30688 | -120.76378 | 5605 ft | 263 kts | 308° |
| 2026-04-23 22:27 | 35.31742 | -120.78230 | 6637 ft | 267 kts | 307° |
| 2026-04-23 22:27 | 35.32790 | -120.80077 | 7637 ft | 270 kts | 306° |
| 2026-04-23 22:28 | 35.33885 | -120.82003 | 8691 ft | 272 kts | 305° |
| 2026-04-23 22:28 | 35.34970 | -120.83906 | 9679 ft | 275 kts | 304° |
| 2026-04-23 22:28 | 35.36021 | -120.85880 | 10544 ft | 280 kts | 297° |
| 2026-04-23 22:28 | 35.36737 | -120.88176 | 10884 ft | 304 kts | 283° |
| 2026-04-23 22:29 | 35.37165 | -120.90811 | 11166 ft | 326 kts | 281° |
| 2026-04-23 22:29 | 35.37601 | -120.93579 | 11773 ft | 334 kts | 281° |
| 2026-04-23 22:29 | 35.38044 | -120.96392 | 12547 ft | 337 kts | 281° |
| 2026-04-23 22:29 | 35.38495 | -120.99218 | 13352 ft | 339 kts | 281° |
| 2026-04-23 22:30 | 35.38956 | -121.02069 | 14127 ft | 341 kts | 281° |
| 2026-04-23 22:30 | 35.39419 | -121.04925 | 14829 ft | 343 kts | 281° |
| 2026-04-23 22:30 | 35.39888 | -121.07802 | 15532 ft | 345 kts | 281° |
| 2026-04-23 22:30 | 35.40358 | -121.10697 | 16226 ft | 348 kts | 281° |
| 2026-04-23 22:31 | 35.40929 | -121.13589 | 16910 ft | 350 kts | 288° |
| 2026-04-23 22:31 | 35.41973 | -121.16299 | 17601 ft | 355 kts | 301° |
| 2026-04-23 22:31 | 35.43634 | -121.18546 | 18282 ft | 364 kts | 318° |
| 2026-04-23 22:31 | 35.45871 | -121.20068 | 18881 ft | 374 kts | 333° |
| 2026-04-23 22:32 | 35.48301 | -121.21249 | 19503 ft | 376 kts | 334° |
| 2026-04-23 22:32 | 35.50747 | -121.22408 | 20108 ft | 379 kts | 334° |
| 2026-04-23 22:32 | 35.52387 | -121.23177 | 20518 ft | 381 kts | 334° |
| 2026-04-23 22:32 | 35.54869 | -121.24343 | 21097 ft | 384 kts | 333° |
| 2026-04-23 22:33 | 35.57369 | -121.25523 | 21666 ft | 386 kts | 333° |
| 2026-04-23 22:33 | 35.59881 | -121.26709 | 22221 ft | 388 kts | 333° |
| 2026-04-23 22:33 | 35.62412 | -121.27906 | 22758 ft | 391 kts | 333° |
| 2026-04-23 22:33 | 35.64959 | -121.29116 | 23272 ft | 393 kts | 332° |
| 2026-04-23 22:34 | 35.67517 | -121.30339 | 23778 ft | 396 kts | 332° |
| 2026-04-23 22:34 | 35.70090 | -121.31571 | 24194 ft | 398 kts | 332° |
| 2026-04-23 22:34 | 35.72679 | -121.32811 | 24614 ft | 401 kts | 332° |
| 2026-04-23 22:34 | 35.75287 | -121.34061 | 25029 ft | 403 kts | 332° |
| 2026-04-23 22:35 | 35.77907 | -121.35316 | 25449 ft | 405 kts | 332° |
| 2026-04-23 22:35 | 35.80549 | -121.36580 | 25868 ft | 408 kts | 332° |
| 2026-04-23 22:35 | 35.83189 | -121.37842 | 26060 ft | 409 kts | 332° |
| 2026-04-23 22:35 | 35.85846 | -121.39113 | 26103 ft | 410 kts | 332° |
| 2026-04-23 22:36 | 35.88511 | -121.40392 | 26103 ft | 410 kts | 331° |
| 2026-04-23 22:36 | 35.91172 | -121.41673 | 26105 ft | 410 kts | 332° |
| 2026-04-23 22:36 | 35.93827 | -121.42951 | 26098 ft | 410 kts | 332° |
| 2026-04-23 22:36 | 35.96450 | -121.44212 | 26100 ft | 410 kts | 332° |
| 2026-04-23 22:37 | 35.99112 | -121.45491 | 26104 ft | 410 kts | 332° |
| 2026-04-23 22:37 | 36.01771 | -121.46767 | 26103 ft | 411 kts | 332° |
| 2026-04-23 22:37 | 36.04434 | -121.48052 | 26104 ft | 410 kts | 332° |
| 2026-04-23 22:37 | 36.07095 | -121.49336 | 26107 ft | 410 kts | 332° |
| 2026-04-23 22:38 | 36.09744 | -121.50611 | 26101 ft | 409 kts | 332° |
| 2026-04-23 22:38 | 36.12397 | -121.51889 | 26097 ft | 409 kts | 332° |
| 2026-04-23 22:38 | 36.15056 | -121.53173 | 26107 ft | 409 kts | 331° |
| 2026-04-23 22:38 | 36.17697 | -121.54451 | 26100 ft | 409 kts | 331° |
| 2026-04-23 22:39 | 36.20345 | -121.55733 | 26102 ft | 409 kts | 331° |
| 2026-04-23 22:39 | 36.23003 | -121.57021 | 26100 ft | 409 kts | 331° |
| 2026-04-23 22:39 | 36.25644 | -121.58302 | 26098 ft | 409 kts | 331° |
| 2026-04-23 22:39 | 36.28291 | -121.59587 | 26100 ft | 409 kts | 331° |
| 2026-04-23 22:40 | 36.30777 | -121.60797 | 26107 ft | 409 kts | 331° |
| 2026-04-23 22:40 | 36.33228 | -121.61982 | 26112 ft | 409 kts | 332° |
| 2026-04-23 22:40 | 36.38525 | -121.64555 | 26116 ft | 409 kts | 331° |
| 2026-04-23 22:41 | 36.41173 | -121.65844 | 25985 ft | 409 kts | 331° |
| 2026-04-23 22:41 | 36.43814 | -121.67129 | 25324 ft | 407 kts | 332° |
| 2026-04-23 22:41 | 36.46419 | -121.68391 | 25135 ft | 393 kts | 332° |
| 2026-04-23 22:41 | 36.48892 | -121.69604 | 24829 ft | 382 kts | 329° |
| 2026-04-23 22:42 | 36.51198 | -121.71201 | 24556 ft | 369 kts | 321° |
| 2026-04-23 22:42 | 36.53327 | -121.72907 | 24157 ft | 368 kts | 321° |
| 2026-04-23 22:42 | 36.54821 | -121.74098 | 23809 ft | 368 kts | 321° |
| 2026-04-23 22:42 | 36.56976 | -121.75815 | 23234 ft | 366 kts | 322° |
| 2026-04-23 22:43 | 36.59116 | -121.77510 | 22724 ft | 364 kts | 322° |
| 2026-04-23 22:43 | 36.61243 | -121.79188 | 22216 ft | 361 kts | 322° |
| 2026-04-23 22:43 | 36.63355 | -121.80854 | 21716 ft | 358 kts | 323° |
| 2026-04-23 22:43 | 36.65451 | -121.82509 | 21177 ft | 356 kts | 323° |
| 2026-04-23 22:44 | 36.67530 | -121.84152 | 20695 ft | 354 kts | 323° |
| 2026-04-23 22:44 | 36.69603 | -121.85796 | 20194 ft | 351 kts | 323° |
| 2026-04-23 22:44 | 36.71663 | -121.87433 | 19602 ft | 351 kts | 323° |
| 2026-04-23 22:44 | 36.73780 | -121.88946 | 19107 ft | 351 kts | 331° |
| 2026-04-23 22:45 | 36.76082 | -121.89962 | 18593 ft | 354 kts | 341° |
| 2026-04-23 22:45 | 36.78489 | -121.90630 | 17976 ft | 354 kts | 343° |
| 2026-04-23 22:45 | 36.80886 | -121.91290 | 17422 ft | 350 kts | 343° |
| 2026-04-23 22:45 | 36.83256 | -121.91945 | 16876 ft | 347 kts | 343° |
| 2026-04-23 22:46 | 36.85592 | -121.92595 | 16336 ft | 344 kts | 343° |
| 2026-04-23 22:46 | 36.87926 | -121.93247 | 15799 ft | 341 kts | 343° |
| 2026-04-23 22:46 | 36.90221 | -121.93891 | 15269 ft | 338 kts | 343° |
| 2026-04-23 22:46 | 36.92506 | -121.94536 | 14744 ft | 335 kts | 344° |
| 2026-04-23 22:47 | 36.94781 | -121.95178 | 14218 ft | 333 kts | 344° |
| 2026-04-23 22:47 | 36.97010 | -121.95901 | 13672 ft | 330 kts | 341° |
| 2026-04-23 22:47 | 36.99178 | -121.96718 | 13130 ft | 326 kts | 340° |
| 2026-04-23 22:47 | 37.01323 | -121.97581 | 12634 ft | 323 kts | 340° |
| 2026-04-23 22:48 | 37.03451 | -121.98452 | 12133 ft | 320 kts | 340° |
| 2026-04-23 22:48 | 37.04845 | -121.99020 | 11798 ft | 318 kts | 340° |
| 2026-04-23 22:48 | 37.06611 | -121.99687 | 11391 ft | 317 kts | 342° |
| 2026-04-23 22:48 | 37.08705 | -122.00490 | 10895 ft | 316 kts | 341° |
| 2026-04-23 22:49 | 37.10799 | -122.01326 | 10413 ft | 314 kts | 341° |
| 2026-04-23 22:49 | 37.12834 | -122.02145 | 10263 ft | 301 kts | 341° |
| 2026-04-23 22:49 | 37.14786 | -122.02926 | 10144 ft | 289 kts | 341° |
| 2026-04-23 22:49 | 37.16675 | -122.03677 | 9923 ft | 282 kts | 341° |
| 2026-04-23 22:50 | 37.18412 | -122.04365 | 9772 ft | 278 kts | 341° |
| 2026-04-23 22:50 | 37.19650 | -122.04855 | 9658 ft | 273 kts | 341° |
| 2026-04-23 22:50 | 37.21445 | -122.05564 | 9360 ft | 269 kts | 341° |
| 2026-04-23 22:50 | 37.23217 | -122.06260 | 8988 ft | 268 kts | 341° |
| 2026-04-23 22:51 | 37.25011 | -122.06963 | 8620 ft | 268 kts | 342° |
| 2026-04-23 22:51 | 37.26783 | -122.07656 | 8288 ft | 266 kts | 341° |
| 2026-04-23 22:51 | 37.28549 | -122.08351 | 7916 ft | 266 kts | 341° |
| 2026-04-23 22:51 | 37.30317 | -122.09046 | 7502 ft | 267 kts | 342° |
| 2026-04-23 22:52 | 37.32099 | -122.09750 | 7101 ft | 268 kts | 342° |
| 2026-04-23 22:52 | 37.33864 | -122.10447 | 6732 ft | 264 kts | 342° |
| 2026-04-23 22:52 | 37.35604 | -122.11131 | 6364 ft | 261 kts | 342° |
| 2026-04-23 22:52 | 37.37241 | -122.11773 | 6021 ft | 257 kts | 342° |
| 2026-04-23 22:53 | 37.38939 | -122.12410 | 5698 ft | 252 kts | 344° |
| 2026-04-23 22:53 | 37.40610 | -122.12988 | 5415 ft | 247 kts | 345° |
| 2026-04-23 22:53 | 37.42250 | -122.13541 | 5130 ft | 241 kts | 345° |
| 2026-04-23 22:53 | 37.43856 | -122.14080 | 4827 ft | 237 kts | 345° |
| 2026-04-23 22:54 | 37.45428 | -122.14612 | 4532 ft | 231 kts | 345° |
| 2026-04-23 22:54 | 37.46965 | -122.15136 | 4246 ft | 226 kts | 344° |
| 2026-04-23 22:54 | 37.48450 | -122.15644 | 3980 ft | 222 kts | 344° |
| 2026-04-23 22:54 | 37.49921 | -122.16148 | 3714 ft | 217 kts | 343° |
| 2026-04-23 22:55 | 37.50046 | -122.16191 | 3698 ft | 217 kts | 343° |
| 2026-04-23 22:55 | 37.51477 | -122.16588 | 2713 ft | 241 kts | 343° |
| 2026-04-23 22:55 | 37.52988 | -122.17533 | 2179 ft | 241 kts | 320° |
| 2026-04-23 22:55 | 37.54047 | -122.19001 | 2340 ft | 208 kts | 302° |
| 2026-04-23 22:56 | 37.54742 | -122.20539 | 2285 ft | 197 kts | 296° |
| 2026-04-23 22:56 | 37.55356 | -122.22007 | 2161 ft | 180 kts | 296° |
| 2026-04-23 22:56 | 37.55914 | -122.23336 | 2030 ft | 165 kts | 295° |
| 2026-04-23 22:56 | 37.56427 | -122.24555 | 1843 ft | 150 kts | 296° |
| 2026-04-23 22:57 | 37.56901 | -122.25681 | 1688 ft | 142 kts | 296° |
| 2026-04-23 22:57 | 37.57350 | -122.26746 | 1516 ft | 132 kts | 296° |
| 2026-04-23 22:57 | 37.57767 | -122.27738 | 1351 ft | 125 kts | 296° |
| 2026-04-23 22:57 | 37.58171 | -122.28698 | 1185 ft | 123 kts | 296° |
| 2026-04-23 22:58 | 37.58568 | -122.29642 | 1033 ft | 122 kts | 296° |
| 2026-04-23 22:58 | 37.58968 | -122.30591 | 895 ft | 123 kts | 297° |
| 2026-04-23 22:58 | 37.59365 | -122.31534 | 773 ft | 120 kts | 297° |
| 2026-04-23 22:58 | 37.59756 | -122.32455 | 648 ft | 118 kts | 298° |
| 2026-04-23 22:59 | 37.60148 | -122.33362 | 473 ft | 117 kts | 298° |
| 2026-04-23 22:59 | 37.60517 | -122.34276 | 332 ft | 117 kts | 296° |
| 2026-04-23 22:59 | 37.60895 | -122.35173 | 191 ft | 115 kts | 297° |
| 2026-04-23 22:59 | 37.61267 | -122.36056 | 67 ft | 114 kts | 296° |
| 2026-04-23 23:00 | 37.61610 | -122.36869 | 23 ft | 92 kts | 297° |
| 2026-04-23 23:00 | 37.61828 | -122.37397 | 22 ft | 43 kts | 297° |
| 2026-04-23 23:00 | 37.61943 | -122.37672 | 22 ft | 37 kts | 298° |
| 2026-04-23 23:00 | 37.61973 | -122.37921 | 22 ft | 15 kts | 246° |
| 2026-04-23 23:01 | 37.61963 | -122.37943 | 22 ft | 1 kts | 239° |
| 2026-04-23 23:01 | 37.61946 | -122.37963 | 23 ft | 5 kts | 218° |
| 2026-04-23 23:01 | 37.61904 | -122.37991 | 22 ft | 8 kts | 195° |
| 2026-04-23 23:01 | 37.61839 | -122.37973 | 22 ft | 11 kts | 156° |
| 2026-04-23 23:02 | 37.61761 | -122.37943 | 22 ft | 13 kts | 176° |
| 2026-04-23 23:02 | 37.61668 | -122.37964 | 23 ft | 13 kts | 199° |
| 2026-04-23 23:02 | 37.61586 | -122.38010 | 22 ft | 11 kts | 211° |
| 2026-04-23 23:02 | 37.61602 | -122.38067 | 23 ft | 6 kts | 342° |
| 2026-04-23 23:03 | 37.61631 | -122.38077 | 18 ft | 3 kts | 345° |
| 2026-04-23 23:03 | 37.61642 | -122.38081 | 20 ft | 0 kts | 344° |